M I D A S
Marine Information and Data Acquisition System
Tripno 457 of the Zeeleeuw from 2003-04-01 06:32:29 to 2003-04-01 11:04:48
Back to CruiseResearch ActivitiesStationsMapUnderway DataData graphs

EquipmentUnitsComment
TimeDGPSUTC
LatitudeDGPSDM.mWGS84
LongitudeDGPSDM.mWGS84
HeadingGyrodeg 
SOGDGPSknotsSpeed over ground
COGDGPSdegCourse over ground
DepthEcho soundermeters200 kHz
Missing or incorrect values are displayed as -999
Navigation data collected by the RV Zeeleeuw from 2003-04-01 06:32:29 to 2003-04-01 11:04:48
Time Latitude Longitude Heading SOG COG Depth
2003-04-01 06:33:31 51°13.636 2°55.965 124.8 3.7 305 7.1
2003-04-01 06:34:32 51°13.662 2°55.886 104.3 3 287 7.8
2003-04-01 06:35:32 51°13.669 2°55.809 89.8 2.9 272 5
2003-04-01 06:36:32 51°13.669 2°55.759 73.7 0.6 297 8
2003-04-01 06:37:32 51°13.689 2°55.77 23.8 1.3 9 9.9
2003-04-01 06:38:32 51°13.688 2°55.764 18 0.6 209 10.1
2003-04-01 06:39:32 51°13.731 2°55.725 332.3 4.6 327 8.2
2003-04-01 06:40:32 51°13.82 2°55.641 334.4 7.2 329 8.3
2003-04-01 06:41:32 51°13.931 2°55.556 341.2 8.1 337 8.4
2003-04-01 06:42:31 51°14.049 2°55.472 339.3 8.2 335 7.9
2003-04-01 06:43:32 51°14.177 2°55.371 336.7 8.3 332 8.1
2003-04-01 06:44:32 51°14.28 2°55.232 315 8.3 312 8.5
2003-04-01 06:45:32 51°14.369 2°55.061 313.5 8.4 308 9
2003-04-01 06:46:32 51°14.502 2°54.898 335.5 11.3 327 7.8
2003-04-01 06:47:32 51°14.664 2°54.716 334.5 12.2 325 7.6
2003-04-01 06:48:32 51°14.83 2°54.53 335.6 12.3 326 11.4
2003-04-01 06:49:32 51°14.999 2°54.351 333.8 12 325 6.8
2003-04-01 06:50:32 51°15.164 2°54.172 335.4 12.2 327 7.1
2003-04-01 06:51:32 51°15.336 2°53.991 334.6 12.6 326 8
2003-04-01 06:52:32 51°15.515 2°53.806 337.6 13.2 328 8.6
2003-04-01 06:53:31 51°15.702 2°53.616 337.2 13.9 328 9.4
2003-04-01 06:54:32 51°15.905 2°53.416 338.4 14.1 328 10.1
2003-04-01 06:55:32 51°16.109 2°53.234 340.5 14 331 10.6
2003-04-01 06:56:32 51°16.315 2°53.055 340.8 14.1 331 10.9
2003-04-01 06:57:32 51°16.52 2°52.884 342.4 14 333 10.3
2003-04-01 06:58:32 51°16.728 2°52.727 342.2 13.6 334 8.7
2003-04-01 06:59:32 51°16.921 2°52.574 340.2 12.8 332 8.3
2003-04-01 07:00:32 51°17.119 2°52.426 344 13.1 336 8.1
2003-04-01 07:01:32 51°17.315 2°52.265 342.6 13.5 334 8.8
2003-04-01 07:02:32 51°17.516 2°52.113 343.3 13.6 335 9
2003-04-01 07:03:32 51°17.718 2°51.961 343.1 13.4 334 8.7
2003-04-01 07:04:32 51°17.916 2°51.808 343.2 13.4 334 8.7
2003-04-01 07:05:32 51°18.116 2°51.654 343.3 13.6 334 9.6
2003-04-01 07:06:32 51°18.322 2°51.492 343.3 13.8 334 10.8
2003-04-01 07:07:32 51°18.527 2°51.329 343.2 14 334 12.2
2003-04-01 07:08:32 51°18.735 2°51.162 343.3 14 333 12.9
2003-04-01 07:09:32 51°18.941 2°50.994 343.9 13.9 333 13.3
2003-04-01 07:10:32 51°19.138 2°50.804 334.2 14 325 13.2
2003-04-01 07:11:32 51°19.324 2°50.582 334.2 13.9 323 11.5
2003-04-01 07:12:32 51°19.511 2°50.364 334 13.7 324 10
2003-04-01 07:13:32 51°19.699 2°50.138 326.9 14.3 319 12.5
2003-04-01 07:14:32 51°19.792 2°49.789 286.9 14.7 281 14.1
2003-04-01 07:15:32 51°19.795 2°49.391 274 15.1 268 16.1
2003-04-01 07:16:32 51°19.786 2°48.991 274 15.1 268 18
2003-04-01 07:17:32 51°19.778 2°48.591 273.4 15.1 268 20
2003-04-01 07:18:31 51°19.768 2°48.198 273.6 15 268 21
2003-04-01 07:19:32 51°19.759 2°47.794 273.6 15 268 21.3
2003-04-01 07:20:32 51°19.749 2°47.396 274.2 15 268 20.9
2003-04-01 07:21:32 51°19.739 2°46.994 274.1 15.2 267 19.7
2003-04-01 07:22:32 51°19.727 2°46.592 273.9 15.2 267 17.3
2003-04-01 07:23:32 51°19.715 2°46.188 274.3 15.2 267 13
2003-04-01 07:24:32 51°19.705 2°45.788 274.5 15.1 268 12
2003-04-01 07:25:32 51°19.697 2°45.389 274.3 15 268 11.6
2003-04-01 07:26:32 51°19.614 2°45.015 241 15 239 19.5
2003-04-01 07:27:32 51°19.453 2°44.713 228.5 15 226 20.2
2003-04-01 07:28:32 51°19.282 2°44.426 229.3 15 226 20.8
2003-04-01 07:29:32 51°19.125 2°44.154 230.3 11.8 228 21.1
2003-04-01 07:30:32 51°19.033 2°43.965 241.6 7.2 238 21.5
2003-04-01 07:31:31 51°18.969 2°43.847 228.6 5.3 228 21.8
2003-04-01 07:32:33 51°18.936 2°43.775 243.9 0.8 246 21.9
2003-04-01 07:33:32 51°18.934 2°43.768 270.5 0.6 262 22
2003-04-01 07:34:31 51°18.935 2°43.746 287.9 0.9 273 22
2003-04-01 07:35:33 51°18.936 2°43.722 300.4 1.1 277 22.1
2003-04-01 07:36:32 51°18.938 2°43.7 308.9 0.6 271 22.3
2003-04-01 07:37:32 51°18.936 2°43.689 320.4 0.4 220 22.1
2003-04-01 07:38:33 51°18.926 2°43.683 335.3 0.7 201 22.1
2003-04-01 07:39:32 51°18.912 2°43.675 346.2 0.9 195 22.3
2003-04-01 07:40:32 51°18.898 2°43.667 355.7 0.8 199 22.2
2003-04-01 07:41:33 51°18.889 2°43.658 3.7 0.6 226 22.2
2003-04-01 07:42:31 51°18.886 2°43.646 1 0.5 263 22.2
2003-04-01 07:43:31 51°18.891 2°43.628 357.1 1 305 22.4
2003-04-01 07:44:32 51°18.905 2°43.607 4.6 1.2 326 22.5
2003-04-01 07:45:32 51°18.924 2°43.595 24 1.2 347 22.3
2003-04-01 07:46:32 51°18.939 2°43.602 56.8 0.8 42 22.4
2003-04-01 07:47:31 51°18.94 2°43.622 88.5 0.9 105 22.3
2003-04-01 07:48:32 51°18.93 2°43.645 116 1.2 145 22.3
2003-04-01 07:49:32 51°18.909 2°43.657 137 1.4 165 22.4
2003-04-01 07:50:32 51°18.885 2°43.661 151.6 1.5 176 22.3
2003-04-01 07:51:32 51°18.85 2°43.661 177 3.1 183 22.3
2003-04-01 07:52:31 51°18.794 2°43.595 241.9 5.1 236 22.3
2003-04-01 07:53:32 51°18.768 2°43.437 266.3 6.9 260 22.7
2003-04-01 07:54:32 51°18.747 2°43.234 267.3 8.1 261 23
2003-04-01 07:55:32 51°18.725 2°43.018 267.7 8.3 261 23.2
2003-04-01 07:56:32 51°18.707 2°42.797 270 8.4 263 23.3
2003-04-01 07:57:33 51°18.69 2°42.572 270.8 8.4 264 23.3
2003-04-01 07:58:32 51°18.673 2°42.352 271.3 8.5 264 23.2
2003-04-01 07:59:32 51°18.66 2°42.129 272.3 8.5 265 23
2003-04-01 08:00:33 51°18.644 2°41.899 272.3 8.6 264 22
2003-04-01 08:01:32 51°18.628 2°41.675 272.1 8.6 263 20.5
2003-04-01 08:02:33 51°18.613 2°41.445 272.6 8.6 264 18.4
2003-04-01 08:03:32 51°18.598 2°41.222 272.9 8.6 264 18
2003-04-01 08:04:33 51°18.59 2°40.999 288.7 7.5 276 15.5
2003-04-01 08:05:32 51°18.646 2°40.898 356.2 4.5 334 18.1
2003-04-01 08:06:33 51°18.705 2°40.867 19.5 3.1 356 14.2
2003-04-01 08:07:32 51°18.738 2°40.87 35.1 1.2 359 17.3
2003-04-01 08:08:33 51°18.743 2°40.867 64.1 0.1 31 16.8
2003-04-01 08:09:32 51°18.743 2°40.869 68.9 0.2 88 17.6
2003-04-01 08:10:31 51°18.744 2°40.874 69.4 0.2 61 18.3
2003-04-01 08:11:32 51°18.741 2°40.875 78.7 0.3 189 18.4
2003-04-01 08:12:31 51°18.737 2°40.871 85.8 0.5 221 16.9
2003-04-01 08:13:32 51°18.73 2°40.858 94.7 0.7 219 13.4
2003-04-01 08:14:31 51°18.72 2°40.852 107.4 0.6 192 14.5
2003-04-01 08:15:32 51°18.709 2°40.849 114.7 0.7 179 15.1
2003-04-01 08:16:32 51°18.695 2°40.848 120.1 0.8 186 15.1
2003-04-01 08:17:32 51°18.68 2°40.843 135.1 1 191 15.7
2003-04-01 08:18:32 51°18.664 2°40.837 143.5 1 196 16.6
2003-04-01 08:19:32 51°18.65 2°40.831 144.8 0.9 196 17.4
2003-04-01 08:20:32 51°18.636 2°40.825 148.2 0.9 194 17.9
2003-04-01 08:21:32 51°18.619 2°40.819 150.4 1 194 18.3
2003-04-01 08:22:32 51°18.601 2°40.813 150.1 1 190 18.7
2003-04-01 08:23:32 51°18.579 2°40.81 165.6 1.9 187 19
2003-04-01 08:24:33 51°18.542 2°40.797 188.7 2.5 198 15.4
2003-04-01 08:25:32 51°18.505 2°40.756 216.6 2.9 218 16.6
2003-04-01 08:26:32 51°18.477 2°40.695 264.4 2.8 251 18.7
2003-04-01 08:27:32 51°18.487 2°40.622 327.8 3.3 302 11.9
2003-04-01 08:28:32 51°18.538 2°40.623 57.8 3.5 51 16
2003-04-01 08:29:32 51°18.511 2°40.725 132.3 5.4 138 17.7
2003-04-01 08:30:32 51°18.421 2°40.817 143.1 6.9 150 15.3
2003-04-01 08:31:32 51°18.316 2°40.905 144.9 7.2 151 15.8
2003-04-01 08:32:33 51°18.207 2°40.996 150.2 7.3 156 18.5
2003-04-01 08:33:32 51°18.085 2°41.031 174.8 7.7 178 18.8
2003-04-01 08:34:32 51°17.957 2°40.994 196.8 7.9 197 20
2003-04-01 08:35:32 51°17.839 2°40.909 206.3 7.5 206 19.6
2003-04-01 08:36:32 51°17.737 2°40.827 205.4 6.6 204 18.8
2003-04-01 08:37:32 51°17.641 2°40.747 207.5 6.4 208 19.4
2003-04-01 08:38:32 51°17.55 2°40.676 206.8 6.1 206 18.7
2003-04-01 08:39:32 51°17.463 2°40.604 207.6 5.8 208 18.4
2003-04-01 08:40:32 51°17.379 2°40.533 207.4 5.7 207 19.4
2003-04-01 08:41:32 51°17.296 2°40.465 206.6 5.6 207 19.9
2003-04-01 08:42:31 51°17.213 2°40.397 206.8 5.7 207 19.5
2003-04-01 08:43:32 51°17.129 2°40.33 206.8 5.7 207 19.8
2003-04-01 08:44:32 51°17.049 2°40.267 207.1 5.2 207 20
2003-04-01 08:45:32 51°16.974 2°40.203 211.6 5.1 209 20.1
2003-04-01 08:46:32 51°16.902 2°40.133 211.8 5.1 211 20.1
2003-04-01 08:47:32 51°16.829 2°40.068 209.9 5 208 19.8
2003-04-01 08:48:32 51°16.757 2°40 212.7 5.1 211 20.2
2003-04-01 08:49:32 51°16.681 2°39.929 211.9 5.2 212 19.9
2003-04-01 08:50:31 51°16.622 2°39.873 219.1 3.8 216 20
2003-04-01 08:51:33 51°16.58 2°39.815 227.7 3.1 222 19.9
2003-04-01 08:52:32 51°16.548 2°39.763 232 2.7 226 19.5
2003-04-01 08:53:33 51°16.518 2°39.714 232.4 2.4 225 19.4
2003-04-01 08:54:32 51°16.493 2°39.673 229.7 1.9 224 18.9
2003-04-01 08:55:32 51°16.473 2°39.651 219.4 1.3 213 19
2003-04-01 08:56:32 51°16.458 2°39.64 202.6 0.6 198 18.9
2003-04-01 08:57:32 51°16.453 2°39.634 175 0.4 222 19.4
2003-04-01 08:58:32 51°16.447 2°39.626 148.2 0.6 220 18.9
2003-04-01 08:59:32 51°16.44 2°39.621 132.8 0.5 202 19.2
2003-04-01 09:00:32 51°16.43 2°39.618 125.9 0.6 191 19
2003-04-01 09:01:31 51°16.418 2°39.618 127.1 0.3 178 19.3
2003-04-01 09:02:33 51°16.408 2°39.617 131.2 0.8 185 19.6
2003-04-01 09:03:32 51°16.396 2°39.615 135.9 0.8 181 19.6
2003-04-01 09:04:32 51°16.381 2°39.613 142.9 1 183 19.7
2003-04-01 09:05:32 51°16.365 2°39.612 149.9 1 183 19.8
2003-04-01 09:06:32 51°16.351 2°39.611 150.9 1 183 19.9
2003-04-01 09:07:32 51°16.336 2°39.609 151.8 1 178 19.8
2003-04-01 09:08:32 51°16.322 2°39.609 150.9 0.9 182 20
2003-04-01 09:09:32 51°16.308 2°39.611 148.7 0.9 170 20.2
2003-04-01 09:10:31 51°16.293 2°39.613 151.2 1 177 20.2
2003-04-01 09:11:32 51°16.278 2°39.614 152.7 1 178 20.3
2003-04-01 09:12:33 51°16.262 2°39.614 155.5 0.9 177 20.3
2003-04-01 09:13:32 51°16.248 2°39.616 153.2 0.9 168 20.2
2003-04-01 09:14:31 51°16.235 2°39.619 149.2 0.8 172 20.6
2003-04-01 09:15:32 51°16.22 2°39.624 153.4 1 167 20.3
2003-04-01 09:16:32 51°16.204 2°39.627 157.7 1 171 20.7
2003-04-01 09:17:33 51°16.186 2°39.631 159.5 0.9 168 20.4
2003-04-01 09:18:32 51°16.17 2°39.634 160 1 166 20.8
2003-04-01 09:19:31 51°16.157 2°39.639 156.5 0.9 168 20.8
2003-04-01 09:20:32 51°16.143 2°39.644 154.5 0.8 165 20.8
2003-04-01 09:21:32 51°16.129 2°39.649 154.8 0.9 168 20.6
2003-04-01 09:22:32 51°16.114 2°39.653 157.3 0.8 162 20.6
2003-04-01 09:23:32 51°16.099 2°39.66 154.7 1 162 20.7
2003-04-01 09:24:32 51°16.083 2°39.668 154.8 1 166 20.8
2003-04-01 09:25:31 51°16.068 2°39.674 156.9 1 164 20.9
2003-04-01 09:26:32 51°16.053 2°39.682 158.7 0.9 163 21
2003-04-01 09:27:32 51°16.036 2°39.687 160.9 1 164 21
2003-04-01 09:28:32 51°16.02 2°39.694 160.9 1 162 21.1
2003-04-01 09:29:33 51°16.004 2°39.702 161.1 1 164 21.2
2003-04-01 09:30:32 51°15.989 2°39.711 160.7 0.9 165 21
2003-04-01 09:31:32 51°15.975 2°39.718 158.6 0.9 163 21.1
2003-04-01 09:32:32 51°15.961 2°39.728 158.9 1 157 20.9
2003-04-01 09:33:32 51°15.946 2°39.736 157.8 1 158 21.1
2003-04-01 09:34:32 51°15.933 2°39.75 158.9 1.1 157 21.2
2003-04-01 09:35:31 51°15.92 2°39.765 158.6 1 159 21
2003-04-01 09:36:32 51°15.905 2°39.776 157 1.1 144 20.8
2003-04-01 09:37:32 51°15.891 2°39.788 157.7 1.1 151 20.7
2003-04-01 09:38:32 51°15.876 2°39.8 160.2 1 151 20.9
2003-04-01 09:39:31 51°15.865 2°39.813 156.7 1 145 21
2003-04-01 09:40:32 51°15.852 2°39.827 154.1 1 132 20.8
2003-04-01 09:41:32 51°15.843 2°39.843 153.7 0.9 138 21.1
2003-04-01 09:42:32 51°15.833 2°39.856 150.9 0.9 137 20.9
2003-04-01 09:43:32 51°15.824 2°39.869 151 1 141 20.9
2003-04-01 09:44:32 51°15.807 2°39.888 156.9 1.6 140 20.5
2003-04-01 09:45:32 51°15.78 2°39.906 169.8 1.9 161 20.7
2003-04-01 09:46:32 51°15.75 2°39.923 175.6 1.8 162 20.5
2003-04-01 09:47:32 51°15.721 2°39.939 175 1.8 158 20.4
2003-04-01 09:48:32 51°15.692 2°39.957 175 1.9 155 19.7
2003-04-01 09:49:32 51°15.666 2°39.976 174.5 1.5 148 20
2003-04-01 09:50:32 51°15.638 2°40.005 153.7 3.5 150 19.7
2003-04-01 09:51:31 51°15.588 2°40.126 110.3 6.8 113 19
2003-04-01 09:52:32 51°15.567 2°40.318 95.2 7.6 96 17.7
2003-04-01 09:53:33 51°15.553 2°40.528 94.2 7.9 95 15.9
2003-04-01 09:54:32 51°15.544 2°40.739 93.5 8.1 93 14.5
2003-04-01 09:55:32 51°15.537 2°40.955 93.3 8.2 93 13.4
2003-04-01 09:56:31 51°15.533 2°41.168 93.4 8.2 92 12.4
2003-04-01 09:57:32 51°15.529 2°41.392 93 8.3 91 11.8
2003-04-01 09:58:33 51°15.525 2°41.618 93.3 8.4 92 11.8
2003-04-01 09:59:32 51°15.521 2°41.839 93 8.5 92 11.5
2003-04-01 10:00:33 51°15.519 2°42.067 93.3 8.5 91 10.4
2003-04-01 10:01:33 51°15.515 2°42.291 93.5 8.4 92 12.3
2003-04-01 10:02:33 51°15.51 2°42.514 93.8 8.5 93 12.6
2003-04-01 10:03:33 51°15.507 2°42.738 93.3 8.4 91 12.3
2003-04-01 10:04:33 51°15.502 2°42.961 93.1 8.4 93 13.2
2003-04-01 10:05:33 51°15.495 2°43.184 93.1 8.4 93 13.1
2003-04-01 10:06:33 51°15.489 2°43.407 92.9 8.4 92 13.8
2003-04-01 10:07:33 51°15.484 2°43.63 92.9 8.4 91 14.7
2003-04-01 10:08:32 51°15.478 2°43.849 93.4 8.4 93 14.2
2003-04-01 10:09:33 51°15.474 2°44.075 93.2 8.5 93 14.2
2003-04-01 10:10:33 51°15.469 2°44.301 92.9 8.6 93 14.4
2003-04-01 10:11:33 51°15.466 2°44.528 93.1 8.6 92 15.5
2003-04-01 10:12:32 51°15.466 2°44.752 93.1 8.6 89 17
2003-04-01 10:13:31 51°15.464 2°44.976 93.7 8.6 92 18.6
2003-04-01 10:14:33 51°15.464 2°45.211 93.6 8.6 91 19.6
2003-04-01 10:15:33 51°15.461 2°45.442 92.6 8.6 90 19.7
2003-04-01 10:16:33 51°15.465 2°45.674 93.1 8.8 87 19.3
2003-04-01 10:17:33 51°15.47 2°45.907 93.7 8.8 89 18.7
2003-04-01 10:18:33 51°15.475 2°46.141 93.6 8.8 88 17.8
2003-04-01 10:19:33 51°15.48 2°46.37 93.6 8.8 88 17.1
2003-04-01 10:20:33 51°15.488 2°46.605 93.1 8.8 88 16.7
2003-04-01 10:21:33 51°15.494 2°46.838 93.6 8.8 88 16.1
2003-04-01 10:22:33 51°15.5 2°47.07 93.2 8.8 89 15.3
2003-04-01 10:23:32 51°15.505 2°47.301 92.9 8.8 88 14.4
2003-04-01 10:24:33 51°15.509 2°47.538 93.1 8.9 88 13.6
2003-04-01 10:25:33 51°15.512 2°47.772 93.5 8.8 89 12.9
2003-04-01 10:26:33 51°15.514 2°48.007 93.6 8.9 89 12.6
2003-04-01 10:27:33 51°15.517 2°48.242 93.1 8.9 90 12.3
2003-04-01 10:28:33 51°15.519 2°48.478 93.3 8.9 89 12.1
2003-04-01 10:29:33 51°15.52 2°48.716 93.2 9 89 12.5
2003-04-01 10:30:33 51°15.524 2°48.952 93.4 8.9 89 13.3
2003-04-01 10:31:32 51°15.527 2°49.185 94.1 9 90 14.4
2003-04-01 10:32:31 51°15.53 2°49.419 92.7 9 89 15
2003-04-01 10:33:33 51°15.533 2°49.665 93.2 9 88 15.1
2003-04-01 10:34:33 51°15.537 2°49.906 93.3 9.1 88 15.1
2003-04-01 10:35:33 51°15.541 2°50.15 93.1 9.2 88 15.1
2003-04-01 10:36:33 51°15.551 2°50.397 93.7 9.4 87 15.1
2003-04-01 10:37:33 51°15.559 2°50.645 93.5 9.3 87 15.1
2003-04-01 10:38:33 51°15.566 2°50.891 98.3 9.3 90 15.1
2003-04-01 10:39:33 51°15.537 2°51.126 116.8 8.9 105 15.1
2003-04-01 10:40:32 51°15.494 2°51.347 117.3 8.9 106 15
2003-04-01 10:41:32 51°15.448 2°51.571 121.3 8.8 110 14.8
2003-04-01 10:42:32 51°15.381 2°51.84 121.2 12.4 113 14.4
2003-04-01 10:43:33 51°15.301 2°52.163 120.7 12.9 112 13.9
2003-04-01 10:44:33 51°15.221 2°52.481 120.3 13 112 13.4
2003-04-01 10:45:31 51°15.143 2°52.788 120.8 12.9 113 12.8
2003-04-01 10:46:32 51°15.037 2°53.093 128.4 12.7 120 12.2
2003-04-01 10:47:32 51°14.934 2°53.381 128.6 12.3 120 12.2
2003-04-01 10:48:32 51°14.84 2°53.672 125.1 12.3 117 11.8
2003-04-01 10:49:32 51°14.747 2°53.96 127.1 12.2 119 12.1
2003-04-01 10:50:32 51°14.648 2°54.246 127.6 12.4 117 12.6
2003-04-01 10:51:31 51°14.559 2°54.535 126.6 12.4 117 12.9
2003-04-01 10:52:32 51°14.462 2°54.834 129.5 12.5 118 13
2003-04-01 10:53:32 51°14.357 2°55.115 135.3 12.3 124 11.7
2003-04-01 10:54:32 51°14.243 2°55.296 145.6 7.7 141 12.3
2003-04-01 10:55:32 51°14.156 2°55.38 158 5.4 154 12.1
2003-04-01 10:56:32 51°14.08 2°55.437 158.3 4.9 154 12.3
2003-04-01 10:57:32 51°14.003 2°55.497 159.5 5.2 155 12.2
2003-04-01 10:58:32 51°13.924 2°55.558 158.4 5.3 154 12.4
2003-04-01 10:59:32 51°13.845 2°55.618 159.5 5.2 156 12.4
2003-04-01 11:00:31 51°13.775 2°55.686 147.9 5 143 12.3
2003-04-01 11:01:32 51°13.714 2°55.771 135.8 4.6 134 13.7
2003-04-01 11:02:31 51°13.673 2°55.86 128.8 3.9 123 11.8
2003-04-01 11:03:32 51°13.639 2°55.947 122 3.6 118 11.6
2003-04-01 11:04:32 51°13.617 2°56.028 117 3.1 113 11.8